sensor_id;sensor_type;location;lat;lon;timestamp;P1;durP1;ratioP1;P2;durP2;ratioP2
83306;SDS011;73223;48.584;13.460;2024-03-02T00:01:14;384.20;;;81.18;;
83306;SDS011;73223;48.584;13.460;2024-03-02T00:03:40;134.85;;;21.33;;
83306;SDS011;73223;48.584;13.460;2024-03-02T00:06:07;216.18;;;28.95;;
83306;SDS011;73223;48.584;13.460;2024-03-02T00:08:32;177.90;;;20.17;;
83306;SDS011;73223;48.584;13.460;2024-03-02T00:10:58;48.47;;;14.20;;
83306;SDS011;73223;48.584;13.460;2024-03-02T00:13:24;51.08;;;16.17;;
83306;SDS011;73223;48.584;13.460;2024-03-02T00:15:54;122.55;;;31.58;;
83306;SDS011;73223;48.584;13.460;2024-03-02T00:18:41;42.45;;;15.27;;
83306;SDS011;73223;48.584;13.460;2024-03-02T00:21:06;40.92;;;15.32;;
83306;SDS011;73223;48.584;13.460;2024-03-02T00:23:34;37.15;;;15.43;;
83306;SDS011;73223;48.584;13.460;2024-03-02T00:26:00;42.90;;;16.85;;
83306;SDS011;73223;48.584;13.460;2024-03-02T00:28:30;40.67;;;15.23;;
83306;SDS011;73223;48.584;13.460;2024-03-02T00:30:59;43.45;;;15.43;;
83306;SDS011;73223;48.584;13.460;2024-03-02T00:33:30;36.83;;;15.00;;
83306;SDS011;73223;48.584;13.460;2024-03-02T00:35:57;37.40;;;14.75;;
83306;SDS011;73223;48.584;13.460;2024-03-02T00:38:24;46.45;;;16.17;;
83306;SDS011;73223;48.584;13.460;2024-03-02T00:40:50;37.97;;;15.45;;
83306;SDS011;73223;48.584;13.460;2024-03-02T00:46:04;36.92;;;13.80;;
83306;SDS011;73223;48.584;13.460;2024-03-02T00:48:30;36.87;;;14.93;;
83306;SDS011;73223;48.584;13.460;2024-03-02T00:51:02;34.67;;;14.57;;
83306;SDS011;73223;48.584;13.460;2024-03-02T00:53:29;38.30;;;14.43;;
83306;SDS011;73223;48.584;13.460;2024-03-02T00:55:55;38.92;;;15.45;;
83306;SDS011;73223;48.584;13.460;2024-03-02T00:58:20;38.80;;;14.90;;
83306;SDS011;73223;48.584;13.460;2024-03-02T01:00:45;38.13;;;14.37;;
83306;SDS011;73223;48.584;13.460;2024-03-02T01:03:10;35.17;;;15.13;;
83306;SDS011;73223;48.584;13.460;2024-03-02T01:05:36;37.47;;;16.70;;
83306;SDS011;73223;48.584;13.460;2024-03-02T01:08:01;48.20;;;16.30;;
83306;SDS011;73223;48.584;13.460;2024-03-02T01:10:27;42.72;;;16.02;;
83306;SDS011;73223;48.584;13.460;2024-03-02T01:12:52;36.80;;;15.10;;
83306;SDS011;73223;48.584;13.460;2024-03-02T01:15:17;35.67;;;13.57;;
83306;SDS011;73223;48.584;13.460;2024-03-02T01:17:43;42.88;;;15.15;;
83306;SDS011;73223;48.584;13.460;2024-03-02T01:20:08;41.30;;;14.97;;
83306;SDS011;73223;48.584;13.460;2024-03-02T01:22:34;46.65;;;15.25;;
83306;SDS011;73223;48.584;13.460;2024-03-02T01:25:00;57.80;;;15.90;;
83306;SDS011;73223;48.584;13.460;2024-03-02T01:27:26;43.13;;;15.73;;
83306;SDS011;73223;48.584;13.460;2024-03-02T01:29:52;50.75;;;16.90;;
83306;SDS011;73223;48.584;13.460;2024-03-02T01:32:17;45.58;;;16.63;;
83306;SDS011;73223;48.584;13.460;2024-03-02T01:34:42;42.90;;;16.52;;
83306;SDS011;73223;48.584;13.460;2024-03-02T01:37:08;63.05;;;16.48;;
83306;SDS011;73223;48.584;13.460;2024-03-02T01:39:35;42.17;;;15.98;;
83306;SDS011;73223;48.584;13.460;2024-03-02T01:42:00;45.42;;;15.20;;
83306;SDS011;73223;48.584;13.460;2024-03-02T01:44:25;42.03;;;16.55;;
83306;SDS011;73223;48.584;13.460;2024-03-02T01:46:50;47.15;;;16.33;;
83306;SDS011;73223;48.584;13.460;2024-03-02T01:49:16;227.60;;;18.75;;
83306;SDS011;73223;48.584;13.460;2024-03-02T01:51:41;54.47;;;14.73;;
83306;SDS011;73223;48.584;13.460;2024-03-02T01:54:06;37.33;;;15.40;;
83306;SDS011;73223;48.584;13.460;2024-03-02T01:56:32;41.67;;;15.30;;
83306;SDS011;73223;48.584;13.460;2024-03-02T01:58:57;101.80;;;15.02;;
83306;SDS011;73223;48.584;13.460;2024-03-02T02:01:22;83.03;;;17.05;;
83306;SDS011;73223;48.584;13.460;2024-03-02T02:03:47;41.80;;;15.47;;
83306;SDS011;73223;48.584;13.460;2024-03-02T02:06:13;42.20;;;15.80;;
83306;SDS011;73223;48.584;13.460;2024-03-02T02:08:38;47.50;;;14.95;;
83306;SDS011;73223;48.584;13.460;2024-03-02T02:11:03;37.07;;;14.37;;
83306;SDS011;73223;48.584;13.460;2024-03-02T02:13:28;40.57;;;14.33;;
83306;SDS011;73223;48.584;13.460;2024-03-02T02:15:54;37.07;;;14.30;;
83306;SDS011;73223;48.584;13.460;2024-03-02T02:18:19;49.80;;;14.65;;
83306;SDS011;73223;48.584;13.460;2024-03-02T02:20:45;37.08;;;14.75;;
83306;SDS011;73223;48.584;13.460;2024-03-02T02:23:10;65.43;;;14.00;;
83306;SDS011;73223;48.584;13.460;2024-03-02T02:25:35;32.63;;;13.48;;
83306;SDS011;73223;48.584;13.460;2024-03-02T02:28:01;48.27;;;16.97;;
83306;SDS011;73223;48.584;13.460;2024-03-02T02:30:30;38.90;;;15.93;;
83306;SDS011;73223;48.584;13.460;2024-03-02T02:32:57;38.00;;;15.02;;
83306;SDS011;73223;48.584;13.460;2024-03-02T02:35:23;43.63;;;15.27;;
83306;SDS011;73223;48.584;13.460;2024-03-02T02:37:51;37.28;;;14.88;;
83306;SDS011;73223;48.584;13.460;2024-03-02T02:40:18;41.78;;;14.60;;
83306;SDS011;73223;48.584;13.460;2024-03-02T02:42:46;111.35;;;14.55;;
83306;SDS011;73223;48.584;13.460;2024-03-02T02:45:12;154.20;;;16.67;;
83306;SDS011;73223;48.584;13.460;2024-03-02T02:47:39;223.32;;;16.35;;
83306;SDS011;73223;48.584;13.460;2024-03-02T02:50:06;210.38;;;15.40;;
83306;SDS011;73223;48.584;13.460;2024-03-02T02:52:33;179.63;;;13.65;;
83306;SDS011;73223;48.584;13.460;2024-03-02T02:55:00;249.85;;;15.80;;
83306;SDS011;73223;48.584;13.460;2024-03-02T02:57:26;76.03;;;12.15;;
83306;SDS011;73223;48.584;13.460;2024-03-02T02:59:51;192.60;;;14.70;;
83306;SDS011;73223;48.584;13.460;2024-03-02T03:02:16;393.63;;;20.17;;
83306;SDS011;73223;48.584;13.460;2024-03-02T03:04:41;213.60;;;16.77;;
83306;SDS011;73223;48.584;13.460;2024-03-02T03:07:07;581.03;;;28.17;;
83306;SDS011;73223;48.584;13.460;2024-03-02T03:09:32;514.10;;;22.03;;
83306;SDS011;73223;48.584;13.460;2024-03-02T03:11:57;358.53;;;18.67;;
83306;SDS011;73223;48.584;13.460;2024-03-02T03:14:22;370.70;;;19.20;;
83306;SDS011;73223;48.584;13.460;2024-03-02T03:16:48;270.57;;;16.83;;
83306;SDS011;73223;48.584;13.460;2024-03-02T03:19:13;287.70;;;17.58;;
83306;SDS011;73223;48.584;13.460;2024-03-02T03:21:38;348.55;;;20.90;;
83306;SDS011;73223;48.584;13.460;2024-03-02T03:24:04;447.93;;;22.10;;
83306;SDS011;73223;48.584;13.460;2024-03-02T03:26:29;386.55;;;19.75;;
83306;SDS011;73223;48.584;13.460;2024-03-02T03:28:55;372.50;;;19.77;;
83306;SDS011;73223;48.584;13.460;2024-03-02T03:31:20;302.20;;;18.90;;
83306;SDS011;73223;48.584;13.460;2024-03-02T03:33:45;327.87;;;20.53;;
83306;SDS011;73223;48.584;13.460;2024-03-02T03:36:10;112.57;;;15.27;;
83306;SDS011;73223;48.584;13.460;2024-03-02T03:38:36;264.57;;;17.40;;
83306;SDS011;73223;48.584;13.460;2024-03-02T03:41:01;182.80;;;16.33;;
83306;SDS011;73223;48.584;13.460;2024-03-02T03:43:26;108.15;;;12.55;;
83306;SDS011;73223;48.584;13.460;2024-03-02T03:45:51;155.07;;;14.30;;
83306;SDS011;73223;48.584;13.460;2024-03-02T03:48:17;43.33;;;13.23;;
83306;SDS011;73223;48.584;13.460;2024-03-02T03:50:42;84.40;;;13.30;;
83306;SDS011;73223;48.584;13.460;2024-03-02T03:53:07;75.30;;;12.88;;
83306;SDS011;73223;48.584;13.460;2024-03-02T03:55:33;132.15;;;15.40;;
83306;SDS011;73223;48.584;13.460;2024-03-02T03:57:58;94.37;;;13.70;;
83306;SDS011;73223;48.584;13.460;2024-03-02T04:00:24;80.93;;;14.13;;
83306;SDS011;73223;48.584;13.460;2024-03-02T04:02:49;137.17;;;15.20;;
83306;SDS011;73223;48.584;13.460;2024-03-02T04:05:14;109.63;;;14.40;;
83306;SDS011;73223;48.584;13.460;2024-03-02T04:07:39;378.30;;;22.90;;
83306;SDS011;73223;48.584;13.460;2024-03-02T04:10:08;36.67;;;13.18;;
83306;SDS011;73223;48.584;13.460;2024-03-02T04:12:35;36.35;;;12.60;;
83306;SDS011;73223;48.584;13.460;2024-03-02T04:15:02;36.78;;;12.80;;
83306;SDS011;73223;48.584;13.460;2024-03-02T04:17:29;66.00;;;14.00;;
83306;SDS011;73223;48.584;13.460;2024-03-02T04:19:54;272.65;;;19.73;;
83306;SDS011;73223;48.584;13.460;2024-03-02T04:22:19;157.43;;;16.23;;
83306;SDS011;73223;48.584;13.460;2024-03-02T04:24:44;91.93;;;14.20;;
83306;SDS011;73223;48.584;13.460;2024-03-02T04:27:10;139.47;;;15.30;;
83306;SDS011;73223;48.584;13.460;2024-03-02T04:29:35;142.30;;;15.17;;
83306;SDS011;73223;48.584;13.460;2024-03-02T04:32:00;244.50;;;17.97;;
83306;SDS011;73223;48.584;13.460;2024-03-02T04:34:25;255.48;;;19.85;;
83306;SDS011;73223;48.584;13.460;2024-03-02T04:36:51;207.03;;;16.83;;
83306;SDS011;73223;48.584;13.460;2024-03-02T04:39:16;428.42;;;25.33;;
83306;SDS011;73223;48.584;13.460;2024-03-02T04:41:41;330.17;;;20.90;;
83306;SDS011;73223;48.584;13.460;2024-03-02T04:44:07;245.47;;;17.20;;
83306;SDS011;73223;48.584;13.460;2024-03-02T04:46:33;39.25;;;13.55;;
83306;SDS011;73223;48.584;13.460;2024-03-02T04:48:58;251.65;;;18.25;;
83306;SDS011;73223;48.584;13.460;2024-03-02T04:51:23;122.70;;;15.40;;
83306;SDS011;73223;48.584;13.460;2024-03-02T04:53:48;79.43;;;15.13;;
83306;SDS011;73223;48.584;13.460;2024-03-02T04:56:14;152.15;;;15.38;;
83306;SDS011;73223;48.584;13.460;2024-03-02T04:59:04;57.22;;;13.38;;
83306;SDS011;73223;48.584;13.460;2024-03-02T05:01:30;169.27;;;16.75;;
83306;SDS011;73223;48.584;13.460;2024-03-02T05:03:55;34.67;;;12.43;;
83306;SDS011;73223;48.584;13.460;2024-03-02T05:06:21;116.35;;;14.85;;
83306;SDS011;73223;48.584;13.460;2024-03-02T05:08:46;39.17;;;12.40;;
83306;SDS011;73223;48.584;13.460;2024-03-02T05:11:13;43.78;;;13.20;;
83306;SDS011;73223;48.584;13.460;2024-03-02T05:13:56;37.35;;;13.02;;
83306;SDS011;73223;48.584;13.460;2024-03-02T05:16:22;36.47;;;12.77;;
83306;SDS011;73223;48.584;13.460;2024-03-02T05:18:47;35.97;;;13.35;;
83306;SDS011;73223;48.584;13.460;2024-03-02T05:21:12;43.10;;;13.70;;
83306;SDS011;73223;48.584;13.460;2024-03-02T05:23:38;34.07;;;13.17;;
83306;SDS011;73223;48.584;13.460;2024-03-02T05:26:03;35.53;;;13.55;;
83306;SDS011;73223;48.584;13.460;2024-03-02T05:28:29;32.90;;;13.60;;
83306;SDS011;73223;48.584;13.460;2024-03-02T05:30:54;32.73;;;13.70;;
83306;SDS011;73223;48.584;13.460;2024-03-02T05:33:19;32.73;;;12.37;;
83306;SDS011;73223;48.584;13.460;2024-03-02T05:35:47;30.45;;;12.60;;
83306;SDS011;73223;48.584;13.460;2024-03-02T05:38:14;33.33;;;12.55;;
83306;SDS011;73223;48.584;13.460;2024-03-02T05:40:40;33.53;;;12.43;;
83306;SDS011;73223;48.584;13.460;2024-03-02T05:43:05;33.30;;;11.83;;
83306;SDS011;73223;48.584;13.460;2024-03-02T05:45:30;30.00;;;11.65;;
83306;SDS011;73223;48.584;13.460;2024-03-02T05:47:55;26.33;;;11.00;;
83306;SDS011;73223;48.584;13.460;2024-03-02T05:50:21;34.07;;;14.07;;
83306;SDS011;73223;48.584;13.460;2024-03-02T05:52:46;35.80;;;13.40;;
83306;SDS011;73223;48.584;13.460;2024-03-02T05:55:12;36.17;;;12.90;;
83306;SDS011;73223;48.584;13.460;2024-03-02T05:57:37;33.08;;;12.05;;
83306;SDS011;73223;48.584;13.460;2024-03-02T06:00:05;30.42;;;12.50;;
83306;SDS011;73223;48.584;13.460;2024-03-02T06:02:33;34.97;;;12.15;;
83306;SDS011;73223;48.584;13.460;2024-03-02T06:04:58;35.45;;;12.63;;
83306;SDS011;73223;48.584;13.460;2024-03-02T06:07:23;31.40;;;11.43;;
83306;SDS011;73223;48.584;13.460;2024-03-02T06:09:48;32.37;;;12.67;;
83306;SDS011;73223;48.584;13.460;2024-03-02T06:12:16;31.40;;;11.95;;
83306;SDS011;73223;48.584;13.460;2024-03-02T06:14:41;29.80;;;12.85;;
83306;SDS011;73223;48.584;13.460;2024-03-02T06:17:08;27.73;;;11.25;;
83306;SDS011;73223;48.584;13.460;2024-03-02T06:19:33;32.07;;;12.47;;
83306;SDS011;73223;48.584;13.460;2024-03-02T06:21:58;32.90;;;12.40;;
83306;SDS011;73223;48.584;13.460;2024-03-02T06:24:24;34.10;;;13.02;;
83306;SDS011;73223;48.584;13.460;2024-03-02T06:26:51;31.98;;;11.90;;
83306;SDS011;73223;48.584;13.460;2024-03-02T06:29:16;29.20;;;11.45;;
83306;SDS011;73223;48.584;13.460;2024-03-02T06:31:42;30.30;;;11.55;;
83306;SDS011;73223;48.584;13.460;2024-03-02T06:34:07;29.83;;;11.27;;
83306;SDS011;73223;48.584;13.460;2024-03-02T06:36:33;29.65;;;10.70;;
83306;SDS011;73223;48.584;13.460;2024-03-02T06:38:58;31.88;;;11.52;;
83306;SDS011;73223;48.584;13.460;2024-03-02T06:41:24;32.93;;;11.20;;
83306;SDS011;73223;48.584;13.460;2024-03-02T06:43:49;29.25;;;11.38;;
83306;SDS011;73223;48.584;13.460;2024-03-02T06:46:14;30.05;;;10.38;;
83306;SDS011;73223;48.584;13.460;2024-03-02T06:48:40;28.23;;;11.43;;
83306;SDS011;73223;48.584;13.460;2024-03-02T06:51:05;31.25;;;10.40;;
83306;SDS011;73223;48.584;13.460;2024-03-02T06:53:30;26.40;;;10.52;;
83306;SDS011;73223;48.584;13.460;2024-03-02T06:55:58;29.05;;;10.50;;
83306;SDS011;73223;48.584;13.460;2024-03-02T06:58:23;25.77;;;10.35;;
83306;SDS011;73223;48.584;13.460;2024-03-02T07:00:49;28.95;;;10.60;;
83306;SDS011;73223;48.584;13.460;2024-03-02T07:03:14;28.90;;;10.70;;
83306;SDS011;73223;48.584;13.460;2024-03-02T07:05:39;29.30;;;10.77;;
83306;SDS011;73223;48.584;13.460;2024-03-02T07:08:05;29.10;;;10.70;;
83306;SDS011;73223;48.584;13.460;2024-03-02T07:10:31;25.92;;;9.88;;
83306;SDS011;73223;48.584;13.460;2024-03-02T07:12:56;25.40;;;10.43;;
83306;SDS011;73223;48.584;13.460;2024-03-02T07:15:21;27.80;;;9.52;;
83306;SDS011;73223;48.584;13.460;2024-03-02T07:17:52;28.00;;;11.27;;
83306;SDS011;73223;48.584;13.460;2024-03-02T07:20:18;575.63;;;177.88;;
83306;SDS011;73223;48.584;13.460;2024-03-02T07:22:43;84.53;;;31.67;;
83306;SDS011;73223;48.584;13.460;2024-03-02T07:25:08;65.63;;;29.23;;
83306;SDS011;73223;48.584;13.460;2024-03-02T07:27:33;45.77;;;18.40;;
83306;SDS011;73223;48.584;13.460;2024-03-02T07:30:00;31.13;;;13.07;;
83306;SDS011;73223;48.584;13.460;2024-03-02T07:32:28;29.27;;;14.20;;
83306;SDS011;73223;48.584;13.460;2024-03-02T07:34:54;35.58;;;20.77;;
83306;SDS011;73223;48.584;13.460;2024-03-02T07:37:20;47.85;;;30.27;;
83306;SDS011;73223;48.584;13.460;2024-03-02T07:39:46;37.92;;;18.58;;
83306;SDS011;73223;48.584;13.460;2024-03-02T07:42:11;36.30;;;15.93;;
83306;SDS011;73223;48.584;13.460;2024-03-02T07:44:36;33.72;;;14.63;;
83306;SDS011;73223;48.584;13.460;2024-03-02T07:47:02;31.77;;;14.65;;
83306;SDS011;73223;48.584;13.460;2024-03-02T07:49:28;30.05;;;13.50;;
83306;SDS011;73223;48.584;13.460;2024-03-02T07:51:53;25.77;;;11.02;;
83306;SDS011;73223;48.584;13.460;2024-03-02T07:54:18;24.33;;;11.17;;
83306;SDS011;73223;48.584;13.460;2024-03-02T07:56:44;25.90;;;9.70;;
83306;SDS011;73223;48.584;13.460;2024-03-02T07:59:10;28.90;;;10.30;;
83306;SDS011;73223;48.584;13.460;2024-03-02T08:01:35;28.35;;;10.73;;
83306;SDS011;73223;48.584;13.460;2024-03-02T08:04:01;32.65;;;11.35;;
83306;SDS011;73223;48.584;13.460;2024-03-02T08:06:28;28.58;;;10.65;;
83306;SDS011;73223;48.584;13.460;2024-03-02T08:08:55;29.60;;;11.20;;
83306;SDS011;73223;48.584;13.460;2024-03-02T08:11:21;28.42;;;11.05;;
83306;SDS011;73223;48.584;13.460;2024-03-02T08:13:47;27.65;;;10.95;;
83306;SDS011;73223;48.584;13.460;2024-03-02T08:16:13;29.75;;;11.52;;
83306;SDS011;73223;48.584;13.460;2024-03-02T08:18:39;28.63;;;10.85;;
83306;SDS011;73223;48.584;13.460;2024-03-02T08:21:04;24.30;;;10.45;;
83306;SDS011;73223;48.584;13.460;2024-03-02T08:23:29;25.80;;;10.23;;
83306;SDS011;73223;48.584;13.460;2024-03-02T08:25:55;24.70;;;9.45;;
83306;SDS011;73223;48.584;13.460;2024-03-02T08:28:20;27.00;;;11.80;;
83306;SDS011;73223;48.584;13.460;2024-03-02T08:30:46;28.00;;;10.98;;
83306;SDS011;73223;48.584;13.460;2024-03-02T08:33:11;24.83;;;10.07;;
83306;SDS011;73223;48.584;13.460;2024-03-02T08:35:36;28.05;;;11.75;;
83306;SDS011;73223;48.584;13.460;2024-03-02T08:38:02;26.20;;;11.03;;
83306;SDS011;73223;48.584;13.460;2024-03-02T08:40:28;24.65;;;10.35;;
83306;SDS011;73223;48.584;13.460;2024-03-02T08:42:54;26.92;;;10.65;;
83306;SDS011;73223;48.584;13.460;2024-03-02T08:45:19;23.13;;;9.45;;
83306;SDS011;73223;48.584;13.460;2024-03-02T08:47:45;24.20;;;10.77;;
83306;SDS011;73223;48.584;13.460;2024-03-02T08:50:11;22.67;;;11.02;;
83306;SDS011;73223;48.584;13.460;2024-03-02T08:52:36;28.47;;;11.97;;
83306;SDS011;73223;48.584;13.460;2024-03-02T08:55:01;27.48;;;12.30;;
83306;SDS011;73223;48.584;13.460;2024-03-02T08:57:27;24.85;;;10.70;;
83306;SDS011;73223;48.584;13.460;2024-03-02T08:59:52;27.67;;;10.90;;
83306;SDS011;73223;48.584;13.460;2024-03-02T09:02:18;22.48;;;9.80;;
83306;SDS011;73223;48.584;13.460;2024-03-02T09:04:43;37.30;;;16.42;;
83306;SDS011;73223;48.584;13.460;2024-03-02T09:07:09;48.75;;;21.30;;
83306;SDS011;73223;48.584;13.460;2024-03-02T09:09:34;26.60;;;10.83;;
83306;SDS011;73223;48.584;13.460;2024-03-02T09:11:59;30.98;;;13.18;;
83306;SDS011;73223;48.584;13.460;2024-03-02T09:14:25;24.90;;;10.93;;
83306;SDS011;73223;48.584;13.460;2024-03-02T09:16:50;28.67;;;11.52;;
83306;SDS011;73223;48.584;13.460;2024-03-02T09:19:15;32.58;;;13.60;;
83306;SDS011;73223;48.584;13.460;2024-03-02T09:21:41;31.80;;;13.00;;
83306;SDS011;73223;48.584;13.460;2024-03-02T09:24:07;29.98;;;10.60;;
83306;SDS011;73223;48.584;13.460;2024-03-02T09:26:32;34.58;;;14.48;;
83306;SDS011;73223;48.584;13.460;2024-03-02T09:28:58;36.03;;;14.75;;
83306;SDS011;73223;48.584;13.460;2024-03-02T09:31:23;32.72;;;12.07;;
83306;SDS011;73223;48.584;13.460;2024-03-02T09:33:48;42.22;;;18.15;;
83306;SDS011;73223;48.584;13.460;2024-03-02T09:36:17;36.30;;;14.17;;
83306;SDS011;73223;48.584;13.460;2024-03-02T09:38:46;44.15;;;17.65;;
83306;SDS011;73223;48.584;13.460;2024-03-02T09:41:11;28.95;;;11.40;;
83306;SDS011;73223;48.584;13.460;2024-03-02T09:43:37;33.92;;;14.57;;
83306;SDS011;73223;48.584;13.460;2024-03-02T09:46:03;34.08;;;14.30;;
83306;SDS011;73223;48.584;13.460;2024-03-02T09:48:28;40.13;;;17.17;;
83306;SDS011;73223;48.584;13.460;2024-03-02T09:50:54;29.48;;;11.18;;
83306;SDS011;73223;48.584;13.460;2024-03-02T09:53:19;48.53;;;19.90;;
83306;SDS011;73223;48.584;13.460;2024-03-02T09:55:45;57.47;;;24.38;;
83306;SDS011;73223;48.584;13.460;2024-03-02T09:58:11;28.73;;;11.60;;
83306;SDS011;73223;48.584;13.460;2024-03-02T10:00:37;32.17;;;13.38;;
83306;SDS011;73223;48.584;13.460;2024-03-02T10:03:02;39.30;;;17.50;;
83306;SDS011;73223;48.584;13.460;2024-03-02T10:05:29;40.05;;;16.20;;
83306;SDS011;73223;48.584;13.460;2024-03-02T10:08:01;47.95;;;19.92;;
83306;SDS011;73223;48.584;13.460;2024-03-02T10:10:34;24.38;;;10.57;;
83306;SDS011;73223;48.584;13.460;2024-03-02T10:13:04;30.17;;;12.15;;
83306;SDS011;73223;48.584;13.460;2024-03-02T10:15:30;40.33;;;16.13;;
83306;SDS011;73223;48.584;13.460;2024-03-02T10:17:55;31.03;;;13.27;;
83306;SDS011;73223;48.584;13.460;2024-03-02T10:20:21;27.87;;;12.10;;
83306;SDS011;73223;48.584;13.460;2024-03-02T10:22:48;48.28;;;19.42;;
83306;SDS011;73223;48.584;13.460;2024-03-02T10:25:32;25.90;;;12.10;;
83306;SDS011;73223;48.584;13.460;2024-03-02T10:27:58;248.98;;;74.55;;
83306;SDS011;73223;48.584;13.460;2024-03-02T10:30:25;33.55;;;14.43;;
83306;SDS011;73223;48.584;13.460;2024-03-02T10:32:55;29.58;;;12.38;;
83306;SDS011;73223;48.584;13.460;2024-03-02T10:35:21;199.07;;;52.95;;
83306;SDS011;73223;48.584;13.460;2024-03-02T10:37:48;27.75;;;11.75;;
83306;SDS011;73223;48.584;13.460;2024-03-02T10:40:14;58.03;;;21.10;;
83306;SDS011;73223;48.584;13.460;2024-03-02T10:42:41;25.23;;;10.85;;
83306;SDS011;73223;48.584;13.460;2024-03-02T10:45:07;30.55;;;11.43;;
83306;SDS011;73223;48.584;13.460;2024-03-02T10:47:35;25.45;;;11.63;;
83306;SDS011;73223;48.584;13.460;2024-03-02T10:50:03;27.33;;;11.68;;
83306;SDS011;73223;48.584;13.460;2024-03-02T10:52:33;23.05;;;11.10;;
83306;SDS011;73223;48.584;13.460;2024-03-02T10:55:01;23.85;;;10.77;;
83306;SDS011;73223;48.584;13.460;2024-03-02T10:57:31;25.15;;;11.88;;
83306;SDS011;73223;48.584;13.460;2024-03-02T11:00:04;26.02;;;11.50;;
83306;SDS011;73223;48.584;13.460;2024-03-02T11:02:31;26.95;;;11.50;;
83306;SDS011;73223;48.584;13.460;2024-03-02T11:04:59;26.30;;;10.60;;
83306;SDS011;73223;48.584;13.460;2024-03-02T11:07:27;22.40;;;10.65;;
83306;SDS011;73223;48.584;13.460;2024-03-02T11:09:59;24.55;;;10.88;;
83306;SDS011;73223;48.584;13.460;2024-03-02T11:12:38;26.02;;;11.80;;
83306;SDS011;73223;48.584;13.460;2024-03-02T11:15:11;28.05;;;11.73;;
83306;SDS011;73223;48.584;13.460;2024-03-02T11:17:42;26.85;;;11.70;;
83306;SDS011;73223;48.584;13.460;2024-03-02T11:20:08;31.95;;;13.77;;
83306;SDS011;73223;48.584;13.460;2024-03-02T11:22:35;30.48;;;13.38;;
83306;SDS011;73223;48.584;13.460;2024-03-02T11:25:01;22.15;;;9.80;;
83306;SDS011;73223;48.584;13.460;2024-03-02T11:30:55;27.02;;;11.82;;
83306;SDS011;73223;48.584;13.460;2024-03-02T11:33:03;23.48;;;11.40;;
83306;SDS011;73223;48.584;13.460;2024-03-02T11:35:50;21.55;;;10.32;;
83306;SDS011;73223;48.584;13.460;2024-03-02T11:38:17;24.25;;;10.85;;
83306;SDS011;73223;48.584;13.460;2024-03-02T11:40:43;23.83;;;11.02;;
83306;SDS011;73223;48.584;13.460;2024-03-02T11:43:08;30.10;;;12.48;;
83306;SDS011;73223;48.584;13.460;2024-03-02T11:45:34;25.00;;;10.98;;
83306;SDS011;73223;48.584;13.460;2024-03-02T11:48:04;24.20;;;11.45;;
83306;SDS011;73223;48.584;13.460;2024-03-02T11:50:33;25.40;;;10.25;;
83306;SDS011;73223;48.584;13.460;2024-03-02T11:53:00;23.88;;;10.75;;
83306;SDS011;73223;48.584;13.460;2024-03-02T11:55:26;23.15;;;10.20;;
83306;SDS011;73223;48.584;13.460;2024-03-02T11:57:54;46.65;;;22.42;;
83306;SDS011;73223;48.584;13.460;2024-03-02T12:00:20;25.70;;;13.15;;
83306;SDS011;73223;48.584;13.460;2024-03-02T12:02:46;35.10;;;15.57;;
83306;SDS011;73223;48.584;13.460;2024-03-02T12:05:24;25.67;;;11.85;;
83306;SDS011;73223;48.584;13.460;2024-03-02T12:07:54;29.60;;;13.23;;
83306;SDS011;73223;48.584;13.460;2024-03-02T12:10:21;24.02;;;10.45;;
83306;SDS011;73223;48.584;13.460;2024-03-02T12:12:46;26.43;;;12.10;;
83306;SDS011;73223;48.584;13.460;2024-03-02T12:15:12;22.48;;;10.70;;
83306;SDS011;73223;48.584;13.460;2024-03-02T12:17:38;26.33;;;12.73;;
83306;SDS011;73223;48.584;13.460;2024-03-02T12:20:04;22.07;;;9.83;;
83306;SDS011;73223;48.584;13.460;2024-03-02T12:22:30;24.15;;;10.10;;
83306;SDS011;73223;48.584;13.460;2024-03-02T12:24:56;21.42;;;9.70;;
83306;SDS011;73223;48.584;13.460;2024-03-02T12:27:21;22.67;;;10.10;;
83306;SDS011;73223;48.584;13.460;2024-03-02T12:29:46;21.58;;;10.95;;
83306;SDS011;73223;48.584;13.460;2024-03-02T12:32:13;20.20;;;10.13;;
83306;SDS011;73223;48.584;13.460;2024-03-02T12:34:39;21.00;;;9.55;;
83306;SDS011;73223;48.584;13.460;2024-03-02T12:37:04;21.67;;;10.07;;
83306;SDS011;73223;48.584;13.460;2024-03-02T12:39:30;16.77;;;8.23;;
83306;SDS011;73223;48.584;13.460;2024-03-02T12:41:57;22.33;;;9.85;;
83306;SDS011;73223;48.584;13.460;2024-03-02T12:44:23;18.83;;;9.43;;
83306;SDS011;73223;48.584;13.460;2024-03-02T12:46:48;22.23;;;9.67;;
83306;SDS011;73223;48.584;13.460;2024-03-02T12:49:14;18.90;;;8.95;;
83306;SDS011;73223;48.584;13.460;2024-03-02T12:51:43;19.42;;;9.60;;
83306;SDS011;73223;48.584;13.460;2024-03-02T12:54:10;16.27;;;8.27;;
83306;SDS011;73223;48.584;13.460;2024-03-02T12:56:38;18.85;;;9.10;;
83306;SDS011;73223;48.584;13.460;2024-03-02T12:59:10;25.83;;;11.18;;
83306;SDS011;73223;48.584;13.460;2024-03-02T13:01:55;19.00;;;9.77;;
83306;SDS011;73223;48.584;13.460;2024-03-02T13:04:27;53.47;;;23.33;;
83306;SDS011;73223;48.584;13.460;2024-03-02T13:06:54;53.95;;;27.02;;
83306;SDS011;73223;48.584;13.460;2024-03-02T13:09:22;36.90;;;16.30;;
83306;SDS011;73223;48.584;13.460;2024-03-02T13:11:48;134.32;;;50.78;;
83306;SDS011;73223;48.584;13.460;2024-03-02T13:14:13;93.40;;;29.98;;
83306;SDS011;73223;48.584;13.460;2024-03-02T13:16:39;42.57;;;17.80;;
83306;SDS011;73223;48.584;13.460;2024-03-02T13:19:07;23.67;;;11.02;;
83306;SDS011;73223;48.584;13.460;2024-03-02T13:21:33;33.17;;;17.42;;
83306;SDS011;73223;48.584;13.460;2024-03-02T13:23:58;20.70;;;9.82;;
83306;SDS011;73223;48.584;13.460;2024-03-02T13:26:24;21.40;;;9.90;;
83306;SDS011;73223;48.584;13.460;2024-03-02T13:28:49;21.50;;;9.33;;
83306;SDS011;73223;48.584;13.460;2024-03-02T13:31:14;60.13;;;20.08;;
83306;SDS011;73223;48.584;13.460;2024-03-02T13:33:40;55.50;;;18.80;;
83306;SDS011;73223;48.584;13.460;2024-03-02T13:36:05;21.10;;;9.67;;
83306;SDS011;73223;48.584;13.460;2024-03-02T13:38:30;17.40;;;8.70;;
83306;SDS011;73223;48.584;13.460;2024-03-02T13:40:56;17.08;;;8.57;;
83306;SDS011;73223;48.584;13.460;2024-03-02T13:43:21;139.30;;;41.83;;
83306;SDS011;73223;48.584;13.460;2024-03-02T13:45:48;27.20;;;11.90;;
83306;SDS011;73223;48.584;13.460;2024-03-02T13:48:14;16.75;;;8.82;;
83306;SDS011;73223;48.584;13.460;2024-03-02T13:50:39;17.20;;;8.93;;
83306;SDS011;73223;48.584;13.460;2024-03-02T13:53:05;16.48;;;8.68;;
83306;SDS011;73223;48.584;13.460;2024-03-02T13:55:31;16.83;;;8.45;;
83306;SDS011;73223;48.584;13.460;2024-03-02T14:00:23;18.03;;;8.37;;
83306;SDS011;73223;48.584;13.460;2024-03-02T14:02:48;17.40;;;8.83;;
83306;SDS011;73223;48.584;13.460;2024-03-02T14:05:15;19.58;;;8.50;;
83306;SDS011;73223;48.584;13.460;2024-03-02T14:07:40;21.02;;;10.10;;
83306;SDS011;73223;48.584;13.460;2024-03-02T14:10:06;17.70;;;8.23;;
83306;SDS011;73223;48.584;13.460;2024-03-02T14:12:32;20.55;;;9.75;;